Time;durP1;ratioP1;P1;durP2;ratioP2;P2;SDS_P1;SDS_P2;PMS_P1;PMS_P2;Temp;Humidity;BMP_temperature;BMP_pressure;BME280_temperature;BME280_humidity;BME280_pressure;Samples;Min_cycle;Max_cycle;Signal;HPM_P1;HPM_P2
2021/07/13 00:01:56;;;;;;;11.23;8.77;;;21.40;62.30;;;;;;5020729;28;20412;-78
2021/07/13 00:04:22;;;;;;;12.57;8.90;;;21.40;62.70;;;;;;5017680;28;20447;-77
2021/07/13 00:06:47;;;;;;;11.63;9.30;;;21.40;63.90;;;;;;5015224;28;20460;-76
2021/07/13 00:09:13;;;;;;;11.97;8.47;;;21.40;63.80;;;;;;4998809;28;20738;-78
2021/07/13 00:11:38;;;;;;;9.80;8.77;;;21.40;64.50;;;;;;5016651;28;20379;-78
2021/07/13 00:14:06;;;;;;;12.82;9.20;;;21.40;64.90;;;;;;5015995;28;20404;-77
2021/07/13 00:16:32;;;;;;;12.55;9.05;;;21.40;65.40;;;;;;5015335;28;20446;-78
2021/07/13 00:18:58;;;;;;;11.87;9.40;;;21.40;65.80;;;;;;5016134;28;20878;-77
2021/07/13 00:21:24;;;;;;;12.45;9.35;;;21.40;66.60;;;;;;5022580;28;20392;-77
2021/07/13 00:23:50;;;;;;;17.03;10.00;;;21.30;66.90;;;;;;5021592;28;20874;-77
2021/07/13 00:26:16;;;;;;;13.30;10.23;;;21.30;67.30;;;;;;5020337;28;20416;-77
2021/07/13 00:28:41;;;;;;;12.85;10.20;;;21.30;66.80;;;;;;5017273;28;20388;-77
2021/07/13 00:31:07;;;;;;;11.35;9.65;;;21.30;67.80;;;;;;5016209;28;20479;-78
2021/07/13 00:33:33;;;;;;;17.23;10.20;;;21.20;66.80;;;;;;5015995;28;20408;-78
2021/07/13 00:35:58;;;;;;;15.30;11.20;;;21.20;67.70;;;;;;5015368;28;20389;-77
2021/07/13 00:38:24;;;;;;;11.60;9.80;;;21.20;68.90;;;;;;5015332;28;20392;-78
2021/07/13 00:40:49;;;;;;;18.27;10.07;;;21.30;70.40;;;;;;5014116;28;20411;-77
2021/07/13 00:43:16;;;;;;;14.18;11.40;;;21.20;72.50;;;;;;4996558;28;20397;-77
2021/07/13 00:45:42;;;;;;;16.80;11.35;;;21.00;74.00;;;;;;4997050;28;20396;-76
2021/07/13 00:48:09;;;;;;;18.45;11.02;;;20.90;76.10;;;;;;5014475;28;20389;-76
2021/07/13 00:50:35;;;;;;;16.10;12.97;;;20.80;77.60;;;;;;5013931;28;20512;-77
2021/07/13 00:53:03;;;;;;;17.27;11.95;;;20.80;77.20;;;;;;5014168;28;20428;-77
2021/07/13 00:55:29;;;;;;;18.40;12.82;;;20.80;78.70;;;;;;5014417;28;20385;-76
2021/07/13 00:57:56;;;;;;;15.88;12.25;;;20.70;78.90;;;;;;5015673;28;20385;-77
2021/07/13 01:00:23;;;;;;;16.45;13.15;;;20.80;80.10;;;;;;5021797;28;20399;-76
2021/07/13 01:02:52;;;;;;;19.13;15.45;;;20.70;82.40;;;;;;5019251;28;20399;-76
2021/07/13 01:05:20;;;;;;;22.17;16.55;;;20.70;82.30;;;;;;5019234;28;20418;-76
2021/07/13 01:07:52;;;;;;;23.92;15.52;;;20.70;81.40;;;;;;5005216;28;20431;-75
2021/07/13 01:10:44;;;;;;;19.90;15.20;;;20.60;84.90;;;;;;5002231;28;20400;-77
2021/07/13 01:13:31;;;;;;;22.08;15.95;;;20.50;87.50;;;;;;5015098;28;20452;-77
2021/07/13 01:16:25;;;;;;;24.08;17.52;;;20.40;90.10;;;;;;5013431;28;20388;-77
2021/07/13 01:19:09;;;;;;;24.13;18.70;;;20.30;93.60;;;;;;4996062;28;20455;-77
2021/07/13 01:21:56;;;;;;;27.95;20.40;;;20.30;96.50;;;;;;4998282;28;20384;-77
2021/07/13 01:24:38;;;;;;;27.73;20.88;;;20.20;99.90;;;;;;5016485;28;20399;-76
2021/07/13 01:27:34;;;;;;;26.85;20.58;;;20.10;99.90;;;;;;4999405;28;20412;-78
2021/07/13 01:30:08;;;;;;;30.27;22.10;;;20.10;99.90;;;;;;5015956;28;20393;-77
2021/07/13 01:32:35;;;;;;;29.60;23.00;;;20.00;99.90;;;;;;4995285;28;20415;-76
2021/07/13 01:35:05;;;;;;;27.80;22.73;;;20.20;99.90;;;;;;5014248;28;20412;-76
2021/07/13 01:37:33;;;;;;;28.73;21.60;;;20.40;99.90;;;;;;5013453;28;20439;-76
2021/07/13 01:40:00;;;;;;;35.28;23.67;;;20.30;99.90;;;;;;5013063;28;20381;-77
2021/07/13 01:42:28;;;;;;;30.85;24.15;;;20.40;99.60;;;;;;5012367;28;20400;-76
2021/07/13 01:44:55;;;;;;;35.25;25.50;;;20.30;99.90;;;;;;5012162;28;20468;-76
2021/07/13 01:47:23;;;;;;;34.95;25.20;;;20.20;99.90;;;;;;5012574;28;20393;-77
2021/07/13 01:49:50;;;;;;;34.38;25.70;;;20.20;99.90;;;;;;5013076;28;20388;-77
2021/07/13 01:52:16;;;;;;;33.90;25.45;;;20.10;99.90;;;;;;4995861;28;20770;-76
2021/07/13 01:54:43;;;;;;;35.95;26.13;;;20.20;99.90;;;;;;5012452;28;20385;-76
2021/07/13 01:57:10;;;;;;;35.90;26.45;;;20.20;99.90;;;;;;5012159;28;20727;-76
2021/07/13 01:59:39;;;;;;;41.90;28.63;;;20.30;99.90;;;;;;4995228;28;20455;-76
2021/07/13 02:02:08;;;;;;;41.47;29.80;;;20.30;99.90;;;;;;5013107;28;20781;-76
2021/07/13 02:04:35;;;;;;;44.00;31.27;;;20.30;99.90;;;;;;5018709;28;20380;-76
2021/07/13 02:07:03;;;;;;;47.60;33.07;;;20.10;99.90;;;;;;5020088;28;20486;-76
2021/07/13 02:09:31;;;;;;;45.00;30.30;;;20.00;99.90;;;;;;5017175;28;20442;-75
2021/07/13 02:11:57;;;;;;;42.45;28.02;;;19.80;99.90;;;;;;5012255;28;20814;-75
2021/07/13 02:14:23;;;;;;;49.13;32.27;;;19.70;99.90;;;;;;5011457;28;20389;-77
2021/07/13 02:16:49;;;;;;;40.33;29.60;;;19.60;99.90;;;;;;5011985;28;20446;-76
2021/07/13 02:19:15;;;;;;;36.30;25.52;;;19.50;99.90;;;;;;5011659;28;20408;-76
2021/07/13 02:21:41;;;;;;;30.80;22.17;;;19.40;99.90;;;;;;5011592;28;20801;-77
2021/07/13 02:24:07;;;;;;;30.35;22.63;;;19.30;99.90;;;;;;4994225;28;20385;-75
2021/07/13 02:26:42;;;;;;;31.40;23.83;;;19.30;99.90;;;;;;5011876;28;20395;-76
2021/07/13 02:29:40;;;;;;;31.73;23.00;;;19.30;99.90;;;;;;5011641;28;20408;-76
2021/07/13 02:32:25;;;;;;;33.83;23.92;;;19.30;99.90;;;;;;5009409;28;20392;-75
2021/07/13 02:34:52;;;;;;;30.73;22.38;;;19.30;99.90;;;;;;5011958;28;20381;-76
2021/07/13 02:37:20;;;;;;;32.17;22.23;;;19.20;99.90;;;;;;5011694;28;20394;-77
2021/07/13 02:39:46;;;;;;;27.90;21.00;;;19.10;99.90;;;;;;5011473;28;20838;-75
2021/07/13 02:42:12;;;;;;;25.52;18.90;;;19.10;99.90;;;;;;5011474;28;20404;-76
2021/07/13 02:44:39;;;;;;;26.20;19.50;;;19.10;99.90;;;;;;4993948;28;20812;-76
2021/07/13 02:47:08;;;;;;;23.77;18.30;;;19.10;99.90;;;;;;5011116;28;20389;-76
2021/07/13 02:49:38;;;;;;;23.17;18.85;;;19.10;99.90;;;;;;5011434;28;20886;-75
2021/07/13 02:52:05;;;;;;;28.33;20.52;;;19.10;99.90;;;;;;5012135;28;20389;-75
2021/07/13 02:54:33;;;;;;;29.70;21.30;;;19.20;99.90;;;;;;4993544;28;20397;-76
2021/07/13 02:57:01;;;;;;;33.25;24.45;;;19.20;99.90;;;;;;4993560;28;20717;-76
2021/07/13 02:59:28;;;;;;;36.57;26.83;;;19.20;99.90;;;;;;5011015;28;20428;-76
2021/07/13 03:01:55;;;;;;;41.05;27.17;;;19.20;99.90;;;;;;5010996;28;20381;-75
2021/07/13 03:04:22;;;;;;;34.78;25.60;;;19.10;99.90;;;;;;4993610;28;20401;-75
2021/07/13 03:06:48;;;;;;;38.33;28.30;;;19.10;99.90;;;;;;4993425;28;20388;-76
2021/07/13 03:09:15;;;;;;;41.43;29.90;;;19.10;99.90;;;;;;5011243;28;20381;-75
2021/07/13 03:11:41;;;;;;;44.13;29.63;;;19.10;99.90;;;;;;4993300;28;20395;-76
2021/07/13 03:14:09;;;;;;;45.08;30.67;;;19.10;99.90;;;;;;5010675;28;20987;-78
2021/07/13 03:16:36;;;;;;;41.55;30.48;;;19.10;99.90;;;;;;5010912;28;20561;-76
2021/07/13 03:19:04;;;;;;;43.08;27.75;;;19.10;99.90;;;;;;5011041;28;20468;-76
2021/07/13 03:21:37;;;;;;;39.10;27.90;;;19.10;99.90;;;;;;5010940;28;20397;-77
2021/07/13 03:24:04;;;;;;;38.85;27.60;;;19.10;99.90;;;;;;4993821;28;20953;-75
2021/07/13 03:26:33;;;;;;;37.55;27.75;;;19.20;99.90;;;;;;5016240;28;20442;-75
2021/07/13 03:28:59;;;;;;;38.50;27.33;;;19.20;99.90;;;;;;5018734;28;20384;-76
2021/07/13 03:31:29;;;;;;;37.15;25.95;;;19.20;99.90;;;;;;5000785;28;20401;-76
2021/07/13 03:33:57;;;;;;;39.28;26.67;;;19.20;99.90;;;;;;5016254;28;20405;-76
2021/07/13 03:36:24;;;;;;;36.45;26.52;;;19.30;99.90;;;;;;5014901;28;20434;-76
2021/07/13 03:38:50;;;;;;;38.05;26.70;;;19.20;99.90;;;;;;5014789;28;20862;-76
2021/07/13 03:41:16;;;;;;;40.20;29.40;;;19.20;99.90;;;;;;4997449;28;20442;-75
2021/07/13 03:43:42;;;;;;;34.58;25.58;;;19.20;99.90;;;;;;5016082;28;20451;-75
2021/07/13 03:46:08;;;;;;;33.17;24.45;;;19.20;99.90;;;;;;5017792;28;20396;-75
2021/07/13 03:48:35;;;;;;;30.17;23.43;;;19.30;99.90;;;;;;5017551;28;20473;-75
2021/07/13 03:51:01;;;;;;;38.37;27.20;;;19.40;99.90;;;;;;5017829;28;20968;-77
2021/07/13 03:53:27;;;;;;;37.73;26.90;;;19.40;99.90;;;;;;5014531;28;20496;-77
2021/07/13 03:55:52;;;;;;;33.90;25.67;;;19.40;99.90;;;;;;5014561;28;20465;-76
2021/07/13 03:58:18;;;;;;;36.22;26.95;;;19.50;99.90;;;;;;5014592;28;20388;-76
2021/07/13 04:00:43;;;;;;;41.47;26.90;;;19.50;99.90;;;;;;5016176;28;20381;-75
2021/07/13 04:03:09;;;;;;;36.35;27.30;;;19.50;99.90;;;;;;5018766;28;20389;-74
2021/07/13 04:05:35;;;;;;;40.28;27.65;;;19.50;99.90;;;;;;5019367;28;20419;-74
2021/07/13 04:08:02;;;;;;;40.13;28.70;;;19.40;99.90;;;;;;5019189;28;20416;-75
2021/07/13 04:10:27;;;;;;;41.92;28.10;;;19.40;99.90;;;;;;5018611;28;20754;-77
2021/07/13 04:12:53;;;;;;;37.80;27.15;;;19.40;99.90;;;;;;5016421;28;20415;-76
2021/07/13 04:15:20;;;;;;;39.73;27.13;;;19.40;99.90;;;;;;5013838;28;20377;-75
2021/07/13 04:17:46;;;;;;;40.38;28.50;;;19.50;99.90;;;;;;4996144;28;20385;-75
2021/07/13 04:20:13;;;;;;;44.63;29.27;;;19.50;99.90;;;;;;4996090;28;20393;-75
2021/07/13 04:22:41;;;;;;;41.40;29.25;;;19.50;99.90;;;;;;5000331;28;20483;-76
2021/07/13 04:25:07;;;;;;;40.97;29.23;;;19.50;99.90;;;;;;5019708;28;20920;-76
2021/07/13 04:27:33;;;;;;;42.25;29.20;;;19.50;99.90;;;;;;4997676;28;20417;-76
2021/07/13 04:29:59;;;;;;;46.78;29.90;;;19.50;99.90;;;;;;5013786;28;20451;-76
2021/07/13 04:32:24;;;;;;;44.08;29.92;;;19.50;99.90;;;;;;5013705;28;20409;-77
2021/07/13 04:34:50;;;;;;;49.57;30.60;;;19.50;99.90;;;;;;4995586;28;20476;-75
2021/07/13 04:37:15;;;;;;;46.73;30.97;;;19.50;99.90;;;;;;5012206;28;20381;-76
2021/07/13 04:39:41;;;;;;;53.53;32.67;;;19.60;99.90;;;;;;5013149;28;20385;-76
2021/07/13 04:42:07;;;;;;;50.00;32.30;;;19.50;99.90;;;;;;5012807;28;20396;-75
2021/07/13 04:44:32;;;;;;;49.33;33.20;;;19.30;99.90;;;;;;5013249;28;20397;-75
2021/07/13 04:46:58;;;;;;;54.60;33.45;;;19.40;99.90;;;;;;5012741;28;20381;-77
2021/07/13 04:49:25;;;;;;;56.27;34.87;;;19.40;99.90;;;;;;5012921;28;20385;-76
2021/07/13 04:51:51;;;;;;;50.78;33.42;;;19.40;99.90;;;;;;5013263;28;20412;-78
2021/07/13 04:54:17;;;;;;;50.80;31.80;;;19.40;99.90;;;;;;5013143;28;20451;-76
2021/07/13 04:56:42;;;;;;;50.45;31.52;;;19.40;99.90;;;;;;5012839;28;20411;-76
2021/07/13 04:59:08;;;;;;;58.65;32.85;;;19.30;99.90;;;;;;5012968;28;20393;-76
2021/07/13 05:01:33;;;;;;;57.73;32.67;;;19.20;99.90;;;;;;5013483;28;20477;-75
2021/07/13 05:03:59;;;;;;;52.73;32.87;;;19.30;99.90;;;;;;5014493;28;20397;-76
2021/07/13 05:06:25;;;;;;;52.20;32.00;;;19.30;99.90;;;;;;5015500;28;20745;-74
2021/07/13 05:08:50;;;;;;;53.30;32.05;;;19.30;99.90;;;;;;5016711;28;20409;-75
2021/07/13 05:11:16;;;;;;;49.77;30.70;;;19.30;99.90;;;;;;5015530;28;20395;-75
2021/07/13 05:13:41;;;;;;;49.77;30.03;;;19.20;99.90;;;;;;4998981;28;21021;-76
2021/07/13 05:16:07;;;;;;;47.67;29.48;;;19.20;99.90;;;;;;5014593;28;20789;-77
2021/07/13 05:18:34;;;;;;;45.50;28.90;;;19.10;99.90;;;;;;5016747;28;20377;-78
2021/07/13 05:21:02;;;;;;;38.70;24.38;;;19.20;99.90;;;;;;4998989;28;20388;-75
2021/07/13 05:23:27;;;;;;;39.83;23.17;;;19.10;99.90;;;;;;5016382;28;20450;-76
2021/07/13 05:25:53;;;;;;;30.60;21.87;;;19.10;99.90;;;;;;5014252;28;20388;-76
2021/07/13 05:28:19;;;;;;;29.80;19.40;;;19.10;99.90;;;;;;5012848;28;20377;-75
2021/07/13 05:30:45;;;;;;;27.20;17.77;;;19.10;99.90;;;;;;5013738;28;20404;-75
2021/07/13 05:33:12;;;;;;;20.30;15.60;;;19.10;99.90;;;;;;5014825;28;20500;-75
2021/07/13 05:35:38;;;;;;;23.80;15.52;;;19.10;99.90;;;;;;4999033;28;20388;-75
2021/07/13 05:38:05;;;;;;;21.00;14.65;;;19.10;99.90;;;;;;5015449;28;20392;-74
2021/07/13 05:40:31;;;;;;;22.80;14.90;;;19.00;99.90;;;;;;5014805;28;20470;-76
2021/07/13 05:42:56;;;;;;;21.08;14.80;;;19.00;99.90;;;;;;5014693;28;20400;-75
2021/07/13 05:45:24;;;;;;;22.50;14.15;;;19.10;99.90;;;;;;5013545;28;20734;-76
2021/07/13 05:47:50;;;;;;;18.83;12.77;;;19.10;99.90;;;;;;5012783;28;20455;-76
2021/07/13 05:50:16;;;;;;;13.88;11.30;;;19.20;99.90;;;;;;5012857;28;20385;-75
2021/07/13 05:52:42;;;;;;;15.20;11.20;;;19.20;98.90;;;;;;5013185;28;20412;-76
2021/07/13 05:55:08;;;;;;;18.83;11.23;;;19.20;99.90;;;;;;5012168;28;20412;-76
2021/07/13 05:57:34;;;;;;;19.63;13.05;;;19.10;99.90;;;;;;5012034;28;20750;-76
2021/07/13 06:00:00;;;;;;;13.60;11.75;;;19.20;99.90;;;;;;5011937;28;20385;-76
2021/07/13 06:02:25;;;;;;;17.20;12.90;;;19.30;99.90;;;;;;5012021;28;20404;-76
2021/07/13 06:04:51;;;;;;;16.48;11.73;;;19.30;99.90;;;;;;5011961;28;20377;-75
2021/07/13 06:07:17;;;;;;;15.77;11.50;;;19.40;99.90;;;;;;5012096;28;20404;-75
2021/07/13 06:09:43;;;;;;;17.67;11.37;;;19.50;99.90;;;;;;5011769;28;20399;-76
2021/07/13 06:12:09;;;;;;;18.75;12.65;;;19.50;98.90;;;;;;5011489;28;20385;-77
2021/07/13 06:14:36;;;;;;;17.40;12.38;;;19.50;99.90;;;;;;5012082;28;20878;-76
2021/07/13 06:17:06;;;;;;;17.93;11.40;;;19.60;99.90;;;;;;5011825;28;20409;-76
2021/07/13 06:19:33;;;;;;;16.38;10.90;;;19.70;99.90;;;;;;5011931;28;20393;-76
2021/07/13 06:21:59;;;;;;;12.88;10.10;;;19.60;99.90;;;;;;5011942;28;20386;-77
2021/07/13 06:24:24;;;;;;;16.63;9.48;;;19.40;99.90;;;;;;5012235;28;20399;-77
2021/07/13 06:26:50;;;;;;;15.43;10.82;;;19.30;99.90;;;;;;5021181;28;20791;-78
2021/07/13 06:29:16;;;;;;;12.27;10.40;;;19.30;99.90;;;;;;5004972;28;20401;-76
2021/07/13 06:31:41;;;;;;;15.07;10.68;;;19.30;99.90;;;;;;5024042;28;20397;-76
2021/07/13 06:34:07;;;;;;;14.03;11.23;;;19.30;99.90;;;;;;5024077;28;20418;-77
2021/07/13 06:36:33;;;;;;;15.63;11.10;;;19.30;99.90;;;;;;5017921;28;20476;-76
2021/07/13 06:38:59;;;;;;;18.88;12.10;;;19.30;99.90;;;;;;4999089;28;20397;-79
2021/07/13 06:41:24;;;;;;;14.45;10.38;;;19.50;99.90;;;;;;5015566;28;20869;-77
2021/07/13 06:43:50;;;;;;;15.40;11.02;;;19.50;99.90;;;;;;5017255;28;20452;-78
2021/07/13 06:46:16;;;;;;;15.55;10.35;;;19.70;99.90;;;;;;5017369;28;20396;-77
2021/07/13 06:48:42;;;;;;;16.88;11.10;;;19.70;99.10;;;;;;4998625;28;20396;-77
2021/07/13 06:51:07;;;;;;;13.07;10.45;;;19.70;99.90;;;;;;5015706;28;20392;-77
2021/07/13 06:53:33;;;;;;;15.75;11.20;;;19.70;99.90;;;;;;5015823;28;20862;-75
2021/07/13 06:55:58;;;;;;;13.40;10.30;;;19.70;99.90;;;;;;5015160;28;20388;-77
2021/07/13 06:58:24;;;;;;;12.00;9.87;;;19.70;99.90;;;;;;4997803;28;20385;-77
2021/07/13 07:00:50;;;;;;;17.88;10.55;;;19.70;99.30;;;;;;5014717;28;20389;-77
2021/07/13 07:03:15;;;;;;;12.68;10.50;;;19.50;99.90;;;;;;5024165;28;20446;-75
2021/07/13 07:05:41;;;;;;;15.17;11.00;;;19.50;99.90;;;;;;5027149;28;20376;-77
2021/07/13 07:08:07;;;;;;;12.67;10.23;;;19.50;99.90;;;;;;5014844;28;20518;-77
2021/07/13 07:10:33;;;;;;;13.30;10.43;;;19.50;99.90;;;;;;5011756;28;20389;-77
2021/07/13 07:12:59;;;;;;;15.43;11.37;;;19.60;99.90;;;;;;5013787;28;20479;-76
2021/07/13 07:15:25;;;;;;;16.90;10.40;;;19.60;99.90;;;;;;5016628;28;20439;-76
2021/07/13 07:17:54;;;;;;;13.33;10.63;;;19.60;98.20;;;;;;5015564;28;20400;-76
2021/07/13 07:20:26;;;;;;;17.02;10.98;;;19.60;99.30;;;;;;4998516;28;20413;-77
2021/07/13 07:22:56;;;;;;;18.50;11.60;;;19.60;99.90;;;;;;5013947;28;20385;-78
2021/07/13 07:25:22;;;;;;;17.20;12.63;;;19.70;99.90;;;;;;5016675;28;20392;-77
2021/07/13 07:27:50;;;;;;;19.90;13.43;;;19.90;99.60;;;;;;5016950;28;20385;-76
2021/07/13 07:30:17;;;;;;;19.63;12.00;;;20.00;98.70;;;;;;5011571;28;20425;-77
2021/07/13 07:32:46;;;;;;;15.45;11.27;;;20.00;96.90;;;;;;5011123;28;20428;-78
2021/07/13 07:35:13;;;;;;;18.65;13.60;;;20.00;98.00;;;;;;5011296;28;20409;-78
2021/07/13 07:37:40;;;;;;;20.60;14.25;;;20.00;99.90;;;;;;5013655;28;20385;-78
2021/07/13 07:40:10;;;;;;;17.13;13.30;;;20.10;99.10;;;;;;5012220;28;20385;-78
2021/07/13 07:42:36;;;;;;;19.33;14.20;;;20.20;96.90;;;;;;5010893;28;20392;-76
2021/07/13 07:45:03;;;;;;;22.02;14.80;;;20.20;98.30;;;;;;5011264;28;20480;-77
2021/07/13 07:47:29;;;;;;;24.00;15.98;;;20.20;98.10;;;;;;5012435;28;20400;-77
2021/07/13 07:49:55;;;;;;;20.73;15.70;;;20.20;98.10;;;;;;4998024;28;20388;-78
2021/07/13 07:52:20;;;;;;;21.27;15.97;;;20.30;97.90;;;;;;5014212;28;20389;-77
2021/07/13 07:54:46;;;;;;;24.73;17.90;;;20.20;99.50;;;;;;5014966;28;20858;-77
2021/07/13 07:57:11;;;;;;;28.77;18.90;;;20.20;99.90;;;;;;5014226;28;20396;-76
2021/07/13 07:59:37;;;;;;;30.57;20.80;;;20.20;99.90;;;;;;4996852;28;20393;-77
2021/07/13 08:02:03;;;;;;;38.57;23.50;;;20.10;99.90;;;;;;5014577;28;20412;-76
2021/07/13 08:04:29;;;;;;;32.38;23.10;;;20.20;99.90;;;;;;4997322;28;20900;-76
2021/07/13 08:06:57;;;;;;;38.00;24.17;;;20.20;99.90;;;;;;5014212;28;20483;-78
2021/07/13 08:09:23;;;;;;;40.15;25.55;;;20.20;99.90;;;;;;5019406;28;20889;-76
2021/07/13 08:11:48;;;;;;;43.90;27.30;;;20.10;99.90;;;;;;5015591;28;20393;-78
2021/07/13 08:14:14;;;;;;;44.37;28.60;;;20.00;99.90;;;;;;5001522;28;20412;-77
2021/07/13 08:16:43;;;;;;;51.70;30.88;;;20.00;99.90;;;;;;5019585;28;20385;-77
2021/07/13 08:19:09;;;;;;;48.30;29.73;;;20.00;99.90;;;;;;5019107;28;21024;-78
2021/07/13 08:21:35;;;;;;;48.42;30.80;;;20.20;99.90;;;;;;5018043;28;20388;-76
2021/07/13 08:24:00;;;;;;;53.80;33.70;;;20.30;99.90;;;;;;5018958;28;20422;-77
2021/07/13 08:26:27;;;;;;;54.70;33.95;;;20.40;99.90;;;;;;5018039;28;20877;-77
2021/07/13 08:28:53;;;;;;;44.57;29.73;;;20.50;99.90;;;;;;5017206;28;20472;-77
2021/07/13 08:31:19;;;;;;;41.80;28.08;;;20.60;98.90;;;;;;4998778;28;20420;-77
2021/07/13 08:33:44;;;;;;;45.37;30.43;;;20.70;99.90;;;;;;5000010;28;20405;-77
2021/07/13 08:36:10;;;;;;;42.97;29.60;;;20.60;99.60;;;;;;5019127;28;20407;-76
2021/07/13 08:38:36;;;;;;;48.83;32.22;;;20.40;99.90;;;;;;5017791;28;20878;-78
2021/07/13 08:41:02;;;;;;;47.75;30.60;;;20.20;99.90;;;;;;5018254;28;20715;-78
2021/07/13 08:43:28;;;;;;;55.15;35.08;;;20.20;99.90;;;;;;5018643;28;20892;-77
2021/07/13 08:45:54;;;;;;;46.55;32.70;;;20.30;99.90;;;;;;5003088;28;20893;-79
2021/07/13 08:48:25;;;;;;;50.97;33.53;;;20.50;99.90;;;;;;5001545;28;20431;-76
2021/07/13 08:51:02;;;;;;;47.57;32.70;;;20.70;99.90;;;;;;5002772;28;20419;-79
2021/07/13 08:53:30;;;;;;;54.42;34.33;;;20.70;99.80;;;;;;5004039;28;20409;-77
2021/07/13 08:55:56;;;;;;;53.28;33.05;;;20.70;99.90;;;;;;5007619;28;20411;-74
2021/07/13 08:58:23;;;;;;;49.13;31.00;;;20.90;99.90;;;;;;5025868;28;20459;-76
2021/07/13 09:00:50;;;;;;;51.63;32.38;;;21.00;99.90;;;;;;5024134;28;20472;-75
2021/07/13 09:03:19;;;;;;;44.97;31.25;;;21.10;97.70;;;;;;5007425;28;20404;-78
2021/07/13 09:05:53;;;;;;;47.40;31.33;;;21.20;97.70;;;;;;5007289;28;20389;-76
2021/07/13 09:08:25;;;;;;;48.15;30.48;;;21.10;96.30;;;;;;5023887;28;20400;-75
2021/07/13 09:11:17;;;;;;;45.88;30.77;;;21.00;95.40;;;;;;5019741;28;20389;-76
2021/07/13 09:13:43;;;;;;;48.47;31.60;;;20.80;98.60;;;;;;5023136;28;20423;-76
2021/07/13 09:16:12;;;;;;;43.97;31.70;;;20.70;99.40;;;;;;5023232;28;20385;-76
2021/07/13 09:18:38;;;;;;;53.20;33.87;;;20.70;99.90;;;;;;5023841;28;20376;-77
2021/07/13 09:21:12;;;;;;;46.35;32.33;;;20.70;99.90;;;;;;5018993;28;20870;-78
2021/07/13 09:24:04;;;;;;;53.22;34.08;;;20.70;99.90;;;;;;5000666;28;20389;-77
2021/07/13 09:26:36;;;;;;;50.23;34.27;;;20.70;99.90;;;;;;4999194;28;20392;-77
2021/07/13 09:29:02;;;;;;;46.58;34.15;;;20.70;99.90;;;;;;5017915;28;20834;-77
2021/07/13 09:31:28;;;;;;;49.50;34.30;;;20.70;99.90;;;;;;5016125;28;20427;-78
2021/07/13 09:33:53;;;;;;;48.90;33.77;;;20.70;99.90;;;;;;5000601;28;20905;-76
2021/07/13 09:36:19;;;;;;;52.58;35.85;;;20.70;99.90;;;;;;5017067;28;20385;-76
2021/07/13 09:38:53;;;;;;;53.85;36.10;;;20.70;99.90;;;;;;5017709;28;20401;-77
2021/07/13 09:41:19;;;;;;;56.50;38.95;;;20.70;99.90;;;;;;5021495;28;20858;-76
2021/07/13 09:44:10;;;;;;;54.22;37.15;;;20.70;99.90;;;;;;5004548;28;20400;-77
2021/07/13 09:46:42;;;;;;;58.03;38.30;;;20.80;99.90;;;;;;5019769;28;20487;-76
2021/07/13 09:49:22;;;;;;;55.78;38.65;;;21.00;99.90;;;;;;5017816;28;20392;-75
2021/07/13 09:51:56;;;;;;;60.30;39.72;;;21.00;99.90;;;;;;5018344;28;20395;-77
2021/07/13 09:54:31;;;;;;;55.47;38.60;;;21.10;99.90;;;;;;5018226;28;20424;-78
2021/07/13 09:56:58;;;;;;;61.40;41.30;;;21.00;99.40;;;;;;5017011;28;20823;-76
2021/07/13 09:59:24;;;;;;;62.85;42.13;;;21.00;98.70;;;;;;5016925;28;20416;-76
2021/07/13 10:01:50;;;;;;;64.70;42.20;;;21.00;99.90;;;;;;5002448;28;20393;-75
2021/07/13 10:04:16;;;;;;;61.67;42.58;;;21.00;99.90;;;;;;5021426;28;20496;-77
2021/07/13 10:06:44;;;;;;;72.82;45.95;;;20.90;99.90;;;;;;5020518;28;20464;-77
2021/07/13 10:09:14;;;;;;;66.90;44.15;;;21.00;99.90;;;;;;5018304;28;20456;-76
2021/07/13 10:11:41;;;;;;;69.57;44.95;;;21.20;99.90;;;;;;5006920;28;20396;-77
2021/07/13 10:14:08;;;;;;;67.05;43.75;;;21.40;99.90;;;;;;5020523;28;20906;-77
2021/07/13 10:16:34;;;;;;;69.93;44.87;;;21.50;99.30;;;;;;5000756;28;20413;-76
2021/07/13 10:19:00;;;;;;;63.13;43.43;;;21.60;98.60;;;;;;5015270;28;20746;-76
2021/07/13 10:21:30;;;;;;;66.32;45.08;;;21.90;99.70;;;;;;5017062;28;20397;-77
2021/07/13 10:23:56;;;;;;;59.10;41.40;;;22.30;94.40;;;;;;5021653;28;20389;-77
2021/07/13 10:26:44;;;;;;;56.85;40.75;;;22.60;84.40;;;;;;5018336;28;20759;-76
2021/07/13 10:29:31;;;;;;;56.40;42.00;;;22.80;83.30;;;;;;5022866;28;20396;-76
2021/07/13 10:31:57;;;;;;;57.80;41.22;;;23.00;82.40;;;;;;5022283;28;20392;-76
2021/07/13 10:34:50;;;;;;;55.75;40.00;;;23.20;82.00;;;;;;5015679;28;20769;-76
2021/07/13 10:37:29;;;;;;;57.47;40.90;;;23.30;77.40;;;;;;5017233;28;20381;-78
2021/07/13 10:40:09;;;;;;;54.88;39.78;;;23.10;78.30;;;;;;5017312;28;20758;-76
2021/07/13 10:42:41;;;;;;;55.75;41.42;;;23.10;78.80;;;;;;5003866;28;20384;-77
2021/07/13 10:45:27;;;;;;;57.42;41.10;;;23.00;82.70;;;;;;5005352;28;20444;-75
2021/07/13 10:48:14;;;;;;;52.90;38.67;;;23.10;81.60;;;;;;5018247;28;20389;-77
2021/07/13 10:50:52;;;;;;;56.47;40.33;;;23.30;80.70;;;;;;5018312;28;20877;-78
2021/07/13 10:53:19;;;;;;;56.15;40.17;;;23.10;80.00;;;;;;5019232;28;20412;-77
2021/07/13 10:55:50;;;;;;;62.38;43.13;;;23.10;81.90;;;;;;5003775;28;20451;-75
2021/07/13 10:58:16;;;;;;;64.10;44.35;;;22.90;83.10;;;;;;5027914;28;20495;-75
2021/07/13 11:00:47;;;;;;;60.08;42.10;;;22.80;81.70;;;;;;5008430;28;20743;-77
2021/07/13 11:03:37;;;;;;;67.30;46.10;;;22.50;85.30;;;;;;5006399;28;20978;-78
2021/07/13 11:06:14;;;;;;;65.93;44.15;;;22.40;87.00;;;;;;5002809;28;20404;-78
2021/07/13 11:08:49;;;;;;;65.30;45.70;;;22.20;91.00;;;;;;5002598;28;20404;-76
2021/07/13 11:11:15;;;;;;;66.40;45.55;;;22.30;92.40;;;;;;5002613;28;20479;-77
2021/07/13 11:13:46;;;;;;;71.87;47.83;;;22.10;91.50;;;;;;5003198;28;20432;-77
2021/07/13 11:16:21;;;;;;;70.53;46.53;;;22.10;90.20;;;;;;5003221;28;20423;-77
2021/07/13 11:18:46;;;;;;;66.00;47.08;;;22.20;91.80;;;;;;5003664;28;20385;-78
2021/07/13 11:21:22;;;;;;;67.60;46.03;;;22.30;91.70;;;;;;5016065;28;20746;-77
2021/07/13 11:23:50;;;;;;;64.95;45.67;;;22.50;89.70;;;;;;5013352;28;20389;-77
2021/07/13 11:26:17;;;;;;;64.30;43.70;;;22.60;90.00;;;;;;5014139;28;20420;-77
2021/07/13 11:28:47;;;;;;;62.60;44.33;;;22.80;88.10;;;;;;4996538;28;20397;-76
2021/07/13 11:31:27;;;;;;;63.33;45.08;;;22.70;88.40;;;;;;5013179;28;20735;-76
2021/07/13 11:33:58;;;;;;;64.93;45.63;;;22.80;88.70;;;;;;5014235;28;20408;-76
2021/07/13 11:36:34;;;;;;;64.43;44.70;;;22.90;86.20;;;;;;5014630;28;20885;-76
2021/07/13 11:39:01;;;;;;;66.00;46.58;;;23.00;81.80;;;;;;5000046;28;20384;-77
2021/07/13 11:41:29;;;;;;;73.00;49.40;;;23.10;84.60;;;;;;5021080;28;20385;-75
2021/07/13 11:43:57;;;;;;;62.22;43.17;;;23.30;84.40;;;;;;5017180;28;20396;-77
2021/07/13 11:46:25;;;;;;;56.40;42.30;;;23.60;74.50;;;;;;4999107;28;20404;-77
2021/07/13 11:48:59;;;;;;;55.22;40.45;;;23.80;74.80;;;;;;5026025;28;20389;-76
2021/07/13 11:51:30;;;;;;;58.40;41.78;;;23.80;76.70;;;;;;5021463;28;20387;-76
2021/07/13 11:54:06;;;;;;;59.63;41.35;;;23.60;79.10;;;;;;5023270;28;20412;-77
2021/07/13 11:56:34;;;;;;;57.65;41.88;;;23.60;78.40;;;;;;5018023;28;20393;-78
2021/07/13 11:59:01;;;;;;;60.33;42.10;;;23.50;76.80;;;;;;5020768;28;20408;-78
2021/07/13 12:01:28;;;;;;;59.20;41.75;;;23.10;80.50;;;;;;5019076;28;20385;-78
2021/07/13 12:03:59;;;;;;;61.20;44.77;;;22.60;84.30;;;;;;5001948;28;20446;-77
2021/07/13 12:06:26;;;;;;;60.25;44.47;;;22.50;90.40;;;;;;5019523;28;20392;-76
2021/07/13 12:09:02;;;;;;;59.13;42.40;;;22.60;88.00;;;;;;5018132;28;20936;-76
2021/07/13 12:11:33;;;;;;;56.53;41.50;;;22.60;88.60;;;;;;5019064;28;20749;-77
2021/07/13 12:14:00;;;;;;;62.63;42.42;;;22.70;88.90;;;;;;5018848;28;20928;-77
2021/07/13 12:16:31;;;;;;;59.00;42.30;;;22.60;88.20;;;;;;5019382;28;20392;-78
2021/07/13 12:19:03;;;;;;;57.00;41.38;;;22.70;90.30;;;;;;5018036;28;20404;-77
2021/07/13 12:21:31;;;;;;;55.78;40.63;;;22.80;85.40;;;;;;5019063;28;20416;-78
2021/07/13 12:23:58;;;;;;;56.77;40.03;;;22.90;87.50;;;;;;5018361;28;20399;-77
2021/07/13 12:26:26;;;;;;;54.40;39.43;;;23.00;85.80;;;;;;5017873;28;20762;-76
2021/07/13 12:29:05;;;;;;;51.65;37.90;;;23.30;82.90;;;;;;5017903;28;20391;-77
2021/07/13 12:31:32;;;;;;;50.80;38.10;;;23.70;79.10;;;;;;5018698;28;20391;-78
2021/07/13 12:33:58;;;;;;;50.50;35.50;;;23.70;74.90;;;;;;5023348;28;20412;-77
2021/07/13 12:36:28;;;;;;;47.67;34.30;;;23.70;74.50;;;;;;5000214;28;20400;-77